Colbrook, Connecticut
Current Conditions -  °F | °C
As of 1:53 PM on Friday 24 Oct 2014 (Local Time) from KBAF Reporting Station
Overcast Overcast  
Wind Chill: 54°   Ceiling: 3100
Heat Index: 54°   Visibility: 10mi
Dew Point: 41°   Wind: 16mph
Humidity: 62%   Direction: 350°N
Pressure: 29.73"   Gusts: NA
Location:  42.0286°N, 73.1037°W
Report Text: KBAF 241753Z 35014KT 10SM OVC031 12/05 A2973 RMK AO2 PK WND 34029/1716 SLP069 60000 T01220050 10139 20083 58013
Loading
Personal Weather Stations






























Interactive Weather Map
Tropical Storm Tracking
New forecast layout! Learn more

10-Day Weather Forecast

Advertisements
Track Severe Weather on mobile